Time;durP1;ratioP1;P1;durP2;ratioP2;P2;SDS_P1;SDS_P2;PMS_P1;PMS_P2;Temp;Humidity;BMP_temperature;BMP_pressure;BME280_temperature;BME280_humidity;BME280_pressure;Samples;Min_cycle;Max_cycle;Signal;HPM_P1;HPM_P2
2022/01/19 00:00:44;;;;;;;40.20;22.70;;;4.90;99.90;;;;;;4224583;28;20063;-80
2022/01/19 00:02:46;;;;;;;34.55;20.85;;;4.90;99.90;;;;;;4253717;27;20059;-80
2022/01/19 00:04:48;;;;;;;39.72;21.20;;;4.90;99.90;;;;;;4227296;28;20135;-80
2022/01/19 00:06:50;;;;;;;42.38;22.92;;;4.90;99.90;;;;;;4226998;28;20044;-79
2022/01/19 00:08:52;;;;;;;36.15;22.23;;;4.90;99.90;;;;;;4227322;28;20048;-83
2022/01/19 00:10:55;;;;;;;35.22;21.08;;;4.90;99.90;;;;;;4227746;28;20060;-79
2022/01/19 00:12:58;;;;;;;37.45;20.95;;;4.90;99.90;;;;;;4209577;28;20071;-80
2022/01/19 00:15:00;;;;;;;36.08;21.60;;;4.90;99.90;;;;;;4209710;28;20040;-80
2022/01/19 00:17:02;;;;;;;33.95;20.65;;;4.90;99.90;;;;;;4223477;28;20071;-82
2022/01/19 00:19:04;;;;;;;33.60;21.33;;;4.90;99.90;;;;;;4199182;28;20078;-82
2022/01/19 00:21:06;;;;;;;37.75;22.15;;;4.90;99.90;;;;;;4232848;28;20075;-80
2022/01/19 00:36:52;;;;;;;52.03;29.08;;;4.90;99.90;;;;;;4214872;28;20043;-80
2022/01/19 00:38:54;;;;;;;56.85;29.17;;;4.90;99.90;;;;;;4199521;28;20103;-81
2022/01/19 00:40:57;;;;;;;43.83;27.02;;;4.80;99.90;;;;;;4198868;28;20138;-81
2022/01/19 00:42:59;;;;;;;46.10;26.63;;;4.90;99.90;;;;;;4233265;27;20051;-80
2022/01/19 00:45:06;;;;;;;47.20;24.90;;;4.80;99.90;;;;;;4213635;28;20051;-80
2022/01/19 00:47:08;;;;;;;44.10;24.08;;;4.80;99.90;;;;;;4218948;28;20067;-81
2022/01/19 00:49:10;;;;;;;48.45;25.52;;;4.80;99.90;;;;;;4231747;28;20058;-82
2022/01/19 00:51:12;;;;;;;47.38;26.15;;;4.80;99.90;;;;;;4249854;27;20051;-82
2022/01/19 00:53:13;;;;;;;43.42;23.95;;;4.80;99.90;;;;;;4205718;28;20049;-80
2022/01/19 00:55:15;;;;;;;44.40;22.67;;;4.80;99.90;;;;;;4210322;28;20066;-82
2022/01/19 00:57:18;;;;;;;39.97;23.90;;;4.80;99.90;;;;;;4201928;28;20098;-81
2022/01/19 00:59:20;;;;;;;41.33;24.15;;;4.80;99.90;;;;;;4214586;28;20087;-80
2022/01/19 01:01:21;;;;;;;42.22;24.00;;;4.80;99.90;;;;;;4210974;28;20067;-81
2022/01/19 01:03:24;;;;;;;38.80;22.90;;;4.70;99.90;;;;;;4215880;28;20067;-82
2022/01/19 01:05:26;;;;;;;41.03;25.58;;;4.80;99.90;;;;;;4233982;28;20047;-80
2022/01/19 01:07:29;;;;;;;42.83;24.40;;;4.80;99.90;;;;;;4231587;28;20048;-81
2022/01/19 01:09:31;;;;;;;45.00;24.65;;;4.80;99.90;;;;;;4231672;28;20422;-80
2022/01/19 01:11:36;;;;;;;43.85;23.42;;;4.80;99.90;;;;;;4207555;28;20072;-80
2022/01/19 01:16:16;;;;;;;39.72;22.08;;;4.80;99.90;;;;;;4232411;28;20048;-83
2022/01/19 01:18:19;;;;;;;36.58;21.80;;;4.80;99.90;;;;;;4214530;28;20051;-81
2022/01/19 01:20:21;;;;;;;39.17;23.42;;;4.80;99.90;;;;;;4212225;28;20048;-83
2022/01/19 01:22:23;;;;;;;39.83;22.33;;;4.80;99.90;;;;;;4210410;28;20078;-80
2022/01/19 01:24:25;;;;;;;40.40;23.75;;;4.80;99.90;;;;;;4214270;28;20052;-80
2022/01/19 01:26:27;;;;;;;39.80;24.58;;;4.80;99.90;;;;;;4213027;28;20044;-82
2022/01/19 01:28:29;;;;;;;44.13;24.20;;;4.80;99.90;;;;;;4207252;28;20595;-80
2022/01/19 01:30:31;;;;;;;40.45;24.30;;;4.80;99.90;;;;;;4196750;28;20076;-80
2022/01/19 01:32:34;;;;;;;35.65;23.10;;;4.80;99.90;;;;;;4211812;28;20086;-80
2022/01/19 01:34:36;;;;;;;40.17;24.05;;;4.80;99.90;;;;;;4214413;28;20082;-80
2022/01/19 01:36:38;;;;;;;38.08;23.17;;;4.80;99.90;;;;;;4214326;28;20052;-80
2022/01/19 01:38:40;;;;;;;39.42;22.80;;;4.90;99.90;;;;;;4212941;28;20067;-80
2022/01/19 01:40:42;;;;;;;35.38;21.38;;;4.90;99.90;;;;;;4213531;28;20079;-80
2022/01/19 01:42:44;;;;;;;40.90;23.92;;;4.90;99.90;;;;;;4197233;28;20127;-81
2022/01/19 01:44:50;;;;;;;37.58;22.95;;;4.90;99.90;;;;;;4214119;28;20044;-80
2022/01/19 01:46:58;;;;;;;36.17;22.38;;;4.90;99.90;;;;;;4208457;28;20526;-80
2022/01/19 01:49:00;;;;;;;36.45;21.73;;;4.90;99.90;;;;;;4208206;28;20059;-81
2022/01/19 01:53:26;;;;;;;34.22;20.83;;;4.90;99.90;;;;;;4215452;28;20526;-80
2022/01/19 01:55:28;;;;;;;35.78;22.75;;;4.90;99.90;;;;;;4199315;28;20044;-80
2022/01/19 01:57:30;;;;;;;39.00;22.52;;;5.00;99.90;;;;;;4208817;28;20048;-80
2022/01/19 01:59:34;;;;;;;39.58;22.30;;;5.00;99.90;;;;;;4213930;28;20048;-80
2022/01/19 02:01:38;;;;;;;39.15;22.73;;;5.00;99.90;;;;;;4213621;28;20052;-79
2022/01/19 02:03:42;;;;;;;41.03;23.27;;;5.00;99.90;;;;;;4232820;27;20116;-82
2022/01/19 02:06:14;;;;;;;43.13;25.00;;;5.00;99.90;;;;;;4223896;28;20138;-80
2022/01/19 02:08:18;;;;;;;45.42;24.95;;;4.90;99.90;;;;;;4230635;28;20075;-80
2022/01/19 02:22:33;;;;;;;39.70;22.75;;;4.90;99.90;;;;;;4217680;28;20044;-80
2022/01/19 02:24:44;;;;;;;40.17;22.98;;;4.90;99.90;;;;;;4212006;28;20098;-80
2022/01/19 02:42:10;;;;;;;45.60;23.95;;;5.00;99.90;;;;;;4228121;28;20565;-80
2022/01/19 02:44:26;;;;;;;45.58;23.27;;;5.00;99.90;;;;;;4213264;28;20048;-80
2022/01/19 02:51:09;;;;;;;45.47;23.67;;;5.00;99.90;;;;;;4220439;28;20095;-81
2022/01/19 02:53:11;;;;;;;40.00;23.42;;;5.00;99.90;;;;;;4217533;28;20139;-80
2022/01/19 02:55:13;;;;;;;41.55;23.30;;;5.00;99.90;;;;;;4228792;28;20074;-80
2022/01/19 02:57:15;;;;;;;40.20;23.05;;;5.00;99.90;;;;;;4213237;28;20534;-80
2022/01/19 02:59:32;;;;;;;37.50;21.70;;;5.00;99.90;;;;;;4218974;28;20059;-80
2022/01/19 03:08:41;;;;;;;41.22;23.25;;;5.00;99.90;;;;;;4227024;28;20090;-82
2022/01/19 03:08:47;;;;;;;40.85;23.42;;;5.00;99.90;;;;;;4213924;28;20052;-81
2022/01/19 03:10:48;;;;;;;37.40;23.75;;;5.00;99.90;;;;;;4213188;28;20093;-81
2022/01/19 03:12:50;;;;;;;40.17;24.42;;;5.00;99.90;;;;;;4213100;28;20109;-81
2022/01/19 03:14:52;;;;;;;48.53;24.55;;;5.00;99.90;;;;;;4229641;28;20083;-82
2022/01/19 03:16:54;;;;;;;46.58;24.15;;;5.00;99.90;;;;;;4228861;28;20081;-78
2022/01/19 03:18:56;;;;;;;36.60;22.60;;;5.00;99.90;;;;;;4229413;28;20591;-80
2022/01/19 03:20:58;;;;;;;47.92;24.77;;;5.00;99.90;;;;;;4212975;28;20526;-81
2022/01/19 03:23:04;;;;;;;39.47;23.73;;;5.00;99.90;;;;;;4213184;28;20044;-80
2022/01/19 03:25:12;;;;;;;;;;;5.00;99.90;;;;;;4221835;28;20582;-81
2022/01/19 03:27:13;;;;;;;39.70;22.90;;;5.00;99.90;;;;;;4213170;28;19927;-80
2022/01/19 03:29:16;;;;;;;42.38;22.90;;;5.00;99.90;;;;;;4212740;28;20048;-82
2022/01/19 03:31:18;;;;;;;37.92;22.25;;;5.00;99.90;;;;;;4215465;28;20538;-82
2022/01/19 03:33:20;;;;;;;37.95;23.17;;;5.00;99.90;;;;;;4224140;28;20134;-80
2022/01/19 03:35:22;;;;;;;39.25;23.80;;;5.00;99.90;;;;;;4229776;28;20055;-82
2022/01/19 03:37:24;;;;;;;37.45;22.05;;;4.90;99.90;;;;;;4215139;28;20063;-79
2022/01/19 03:39:26;;;;;;;41.80;22.67;;;4.90;99.90;;;;;;4226061;28;20135;-80
2022/01/19 03:41:27;;;;;;;43.65;22.95;;;5.00;99.90;;;;;;4229913;28;20086;-80
2022/01/19 03:43:29;;;;;;;40.53;21.70;;;5.00;99.90;;;;;;4225298;28;20052;-80
2022/01/19 03:45:33;;;;;;;35.80;21.40;;;5.00;99.90;;;;;;4224602;28;20122;-80
2022/01/19 03:47:49;;;;;;;35.72;21.48;;;5.00;99.90;;;;;;4212271;28;20052;-82
2022/01/19 03:49:51;;;;;;;39.38;23.95;;;4.90;99.90;;;;;;4213095;28;20078;-79
2022/01/19 03:51:58;;;;;;;39.50;21.63;;;5.00;99.90;;;;;;4212893;28;20127;-82
2022/01/19 03:54:00;;;;;;;37.42;21.95;;;4.90;99.90;;;;;;4217943;28;20048;-79
2022/01/19 03:56:03;;;;;;;38.65;21.60;;;5.00;99.90;;;;;;4216070;28;20485;-82
2022/01/19 03:58:05;;;;;;;33.63;21.08;;;4.90;99.90;;;;;;4215770;28;20072;-80
2022/01/19 04:00:08;;;;;;;42.17;23.40;;;5.00;99.90;;;;;;4217326;28;20055;-80
2022/01/19 04:02:10;;;;;;;37.50;22.38;;;5.00;99.90;;;;;;4227274;28;20075;-79
2022/01/19 04:06:52;;;;;;;35.42;21.65;;;5.00;99.90;;;;;;4233233;28;20052;-81
2022/01/19 04:08:53;;;;;;;43.10;21.80;;;5.00;99.90;;;;;;4226249;27;20048;-81
2022/01/19 04:10:55;;;;;;;39.63;21.63;;;5.00;99.90;;;;;;4229976;28;20050;-85
2022/01/19 04:13:10;;;;;;;34.65;21.17;;;4.90;99.90;;;;;;4230070;28;20130;-83
2022/01/19 04:15:14;;;;;;;35.60;22.17;;;4.90;99.90;;;;;;4231194;28;20511;-80
2022/01/19 04:17:17;;;;;;;38.73;22.43;;;5.00;99.90;;;;;;4221669;28;20051;-84
2022/01/19 04:21:21;;;;;;;35.35;21.23;;;4.90;99.90;;;;;;4217808;28;20083;-80
2022/01/19 04:23:23;;;;;;;35.03;20.88;;;5.00;99.90;;;;;;4232816;28;20051;-79
2022/01/19 04:25:25;;;;;;;35.67;21.05;;;5.00;99.90;;;;;;4232688;28;20040;-81
2022/01/19 04:29:29;;;;;;;37.13;21.55;;;4.90;99.90;;;;;;4217764;28;20494;-80
2022/01/19 04:31:32;;;;;;;38.17;22.30;;;5.00;99.90;;;;;;4230548;28;20142;-80
2022/01/19 04:33:39;;;;;;;39.35;22.10;;;5.00;99.90;;;;;;4215318;28;20040;-81
2022/01/19 04:36:20;;;;;;;35.42;21.02;;;4.90;99.90;;;;;;4226976;28;20113;-80
2022/01/19 04:38:57;;;;;;;37.28;21.25;;;5.00;99.90;;;;;;4223781;27;20056;-79
2022/01/19 05:01:41;;;;;;;29.60;19.50;;;5.00;99.90;;;;;;4221133;28;20044;-81
2022/01/19 05:06:01;;;;;;;47.67;27.55;;;5.00;99.90;;;;;;4225698;27;20075;-80
2022/01/19 05:08:21;;;;;;;45.72;25.02;;;4.90;99.90;;;;;;4219950;28;20040;-80
2022/01/19 05:15:06;;;;;;;38.33;20.92;;;4.90;99.90;;;;;;4222815;28;20080;-82
2022/01/19 05:17:12;;;;;;;37.28;20.98;;;4.90;99.90;;;;;;4223700;28;20043;-79
2022/01/19 05:19:14;;;;;;;34.20;19.80;;;4.90;99.90;;;;;;4214967;28;20056;-81
2022/01/19 05:21:16;;;;;;;39.10;20.77;;;4.90;99.90;;;;;;4225937;28;20503;-79
2022/01/19 05:23:18;;;;;;;40.92;21.45;;;4.90;99.90;;;;;;4221664;28;20105;-80
2022/01/19 05:25:20;;;;;;;36.92;20.77;;;4.90;99.90;;;;;;4223363;28;20067;-80
2022/01/19 05:27:22;;;;;;;36.10;21.20;;;4.90;99.90;;;;;;4220547;28;20071;-82
2022/01/19 05:29:24;;;;;;;35.03;19.85;;;4.90;99.90;;;;;;4220082;28;20056;-80
2022/01/19 05:31:26;;;;;;;40.58;20.92;;;4.90;99.90;;;;;;4219409;28;20517;-79
2022/01/19 05:33:28;;;;;;;39.72;22.13;;;4.90;99.90;;;;;;4236824;27;20039;-80
2022/01/19 05:35:30;;;;;;;39.17;21.35;;;4.90;99.90;;;;;;4219214;28;20055;-80
2022/01/19 05:37:36;;;;;;;34.83;21.15;;;4.90;99.90;;;;;;4222747;28;20128;-80
2022/01/19 05:39:38;;;;;;;36.00;20.13;;;4.90;99.90;;;;;;4219108;28;20052;-81
2022/01/19 05:41:40;;;;;;;38.35;21.17;;;4.90;99.90;;;;;;4219145;28;20097;-80
2022/01/19 05:43:43;;;;;;;40.03;20.55;;;4.90;99.90;;;;;;4223120;28;20503;-80
2022/01/19 05:45:45;;;;;;;35.05;21.02;;;4.90;99.90;;;;;;4221771;28;20592;-80
2022/01/19 05:47:47;;;;;;;38.13;20.80;;;4.90;99.90;;;;;;4218182;28;20051;-81
2022/01/19 05:49:49;;;;;;;39.85;21.80;;;4.90;99.90;;;;;;4224664;28;20048;-81
2022/01/19 05:51:51;;;;;;;35.40;21.55;;;4.90;99.90;;;;;;4222106;28;20059;-82
2022/01/19 05:53:53;;;;;;;36.47;22.67;;;4.90;99.90;;;;;;4214131;28;20052;-80
2022/01/19 05:55:55;;;;;;;37.53;20.85;;;4.90;99.90;;;;;;4213601;28;20123;-79
2022/01/19 05:57:57;;;;;;;35.22;22.00;;;4.90;99.90;;;;;;4236131;27;20070;-80
2022/01/19 05:59:59;;;;;;;49.33;27.98;;;4.90;99.90;;;;;;4213804;28;20048;-80
2022/01/19 06:02:01;;;;;;;43.42;25.20;;;4.90;99.90;;;;;;4213500;28;20040;-80
2022/01/19 06:04:04;;;;;;;43.90;24.75;;;4.90;99.90;;;;;;4213695;28;20048;-80
2022/01/19 06:06:05;;;;;;;68.15;37.83;;;4.90;99.90;;;;;;4227474;28;20050;-82
2022/01/19 06:12:39;;;;;;;60.10;30.35;;;4.90;99.90;;;;;;4214640;28;20131;-80
2022/01/19 06:14:43;;;;;;;40.47;24.42;;;4.90;99.90;;;;;;4213592;28;20530;-80
2022/01/19 06:16:45;;;;;;;48.95;25.15;;;4.90;99.90;;;;;;4228170;28;20054;-80
2022/01/19 06:18:47;;;;;;;44.92;24.17;;;4.90;99.90;;;;;;4230449;28;20187;-80
2022/01/19 06:20:50;;;;;;;54.70;28.25;;;4.90;99.90;;;;;;4230267;28;20078;-81
2022/01/19 06:22:52;;;;;;;48.30;27.73;;;4.90;99.90;;;;;;4227589;28;20059;-80
2022/01/19 06:24:55;;;;;;;48.67;27.58;;;4.90;99.90;;;;;;4221758;28;20079;-80
2022/01/19 06:26:57;;;;;;;50.70;27.95;;;4.90;99.90;;;;;;4230322;28;20523;-80
2022/01/19 06:28:59;;;;;;;47.92;26.83;;;4.90;99.90;;;;;;4227825;28;20509;-80
2022/01/19 06:31:01;;;;;;;45.30;26.83;;;4.90;99.90;;;;;;4216646;28;20055;-80
2022/01/19 06:33:03;;;;;;;48.67;26.17;;;5.00;99.90;;;;;;4224079;28;20471;-81
2022/01/19 06:35:06;;;;;;;62.38;32.58;;;5.00;99.90;;;;;;4229049;28;20051;-80
2022/01/19 06:37:09;;;;;;;60.08;32.80;;;5.00;99.90;;;;;;4216406;28;20048;-82
2022/01/19 06:39:11;;;;;;;55.95;32.05;;;5.10;99.90;;;;;;4213126;28;20059;-79
2022/01/19 06:41:13;;;;;;;53.60;29.30;;;5.00;99.90;;;;;;4213510;28;20043;-80
2022/01/19 06:43:15;;;;;;;53.95;28.80;;;5.00;99.90;;;;;;4213260;28;20048;-80
2022/01/19 06:45:17;;;;;;;52.13;30.25;;;5.00;99.90;;;;;;4225918;28;20078;-82
2022/01/19 06:47:19;;;;;;;51.90;29.55;;;5.00;99.90;;;;;;4214517;28;20047;-80
2022/01/19 06:49:28;;;;;;;54.40;29.98;;;5.00;99.90;;;;;;4212983;28;20052;-81
2022/01/19 06:51:30;;;;;;;51.13;28.17;;;5.00;99.90;;;;;;4220640;28;20086;-80
2022/01/19 06:53:32;;;;;;;57.38;31.40;;;5.00;99.90;;;;;;4229981;28;20079;-80
2022/01/19 06:55:34;;;;;;;55.05;29.38;;;5.00;99.90;;;;;;4225584;28;20043;-81
2022/01/19 06:57:36;;;;;;;56.40;29.23;;;5.00;99.90;;;;;;4231515;28;20048;-87
2022/01/19 06:59:38;;;;;;;50.50;28.13;;;5.00;99.90;;;;;;4234479;28;20052;-89
2022/01/19 07:01:40;;;;;;;53.15;29.08;;;5.00;99.90;;;;;;4228383;28;20055;-80
2022/01/19 07:03:42;;;;;;;61.30;31.58;;;5.00;99.90;;;;;;4220888;28;20052;-80
2022/01/19 07:05:45;;;;;;;66.15;32.80;;;5.10;99.90;;;;;;4229571;28;20047;-79
2022/01/19 07:07:47;;;;;;;58.00;31.40;;;5.00;99.90;;;;;;4229872;28;20136;-80
2022/01/19 07:09:50;;;;;;;57.17;30.70;;;5.10;99.90;;;;;;4226170;28;20423;-80
2022/01/19 07:11:52;;;;;;;63.92;30.45;;;5.10;99.90;;;;;;4224910;28;20090;-80
2022/01/19 07:13:54;;;;;;;56.75;29.13;;;5.10;99.90;;;;;;4213418;28;20052;-80
2022/01/19 07:15:56;;;;;;;61.38;30.77;;;5.10;99.90;;;;;;4216724;28;20047;-82
2022/01/19 07:17:58;;;;;;;59.85;30.33;;;5.10;99.90;;;;;;4235893;28;20048;-81
2022/01/19 07:20:00;;;;;;;49.03;27.83;;;5.10;99.90;;;;;;4230926;28;20098;-80
2022/01/19 07:22:02;;;;;;;53.03;28.88;;;5.10;99.90;;;;;;4229965;28;20078;-80
2022/01/19 07:24:04;;;;;;;52.03;28.50;;;5.20;99.90;;;;;;4220781;28;20545;-81
2022/01/19 07:26:07;;;;;;;53.33;28.45;;;5.10;99.90;;;;;;4213336;28;20072;-79
2022/01/19 07:28:11;;;;;;;59.90;30.65;;;5.20;99.90;;;;;;4218293;28;20122;-81
2022/01/19 07:30:13;;;;;;;56.55;30.90;;;5.20;99.90;;;;;;4218511;28;20051;-79
2022/01/19 07:32:15;;;;;;;57.28;28.95;;;5.20;99.90;;;;;;4233371;28;20583;-82
2022/01/19 07:34:17;;;;;;;58.83;30.23;;;5.20;99.90;;;;;;4222843;28;20047;-80
2022/01/19 07:36:19;;;;;;;48.38;28.33;;;5.20;99.90;;;;;;4222348;28;20400;-80
2022/01/19 07:38:26;;;;;;;49.72;27.98;;;5.20;99.90;;;;;;4225890;28;20494;-79
2022/01/19 07:40:28;;;;;;;55.38;28.48;;;5.20;99.90;;;;;;4221903;28;20059;-80
2022/01/19 07:42:30;;;;;;;51.78;26.15;;;5.20;99.90;;;;;;4224220;28;20695;-81
2022/01/19 07:44:32;;;;;;;50.70;28.67;;;5.30;99.90;;;;;;4227106;28;20152;-80
2022/01/19 07:46:34;;;;;;;57.83;28.52;;;5.30;99.90;;;;;;4220844;28;20044;-80
2022/01/19 07:48:36;;;;;;;52.42;28.90;;;5.30;99.90;;;;;;4218456;28;20087;-80
2022/01/19 07:50:42;;;;;;;52.65;28.27;;;5.30;99.90;;;;;;4225530;28;20576;-81
2022/01/19 07:52:45;;;;;;;54.40;28.63;;;5.30;99.90;;;;;;4230271;28;20048;-80
2022/01/19 07:54:47;;;;;;;47.83;27.33;;;5.30;99.90;;;;;;4226680;28;20081;-79
2022/01/19 07:56:49;;;;;;;46.25;25.30;;;5.30;99.90;;;;;;4227464;28;20062;-80
2022/01/19 07:58:51;;;;;;;47.15;26.02;;;5.40;99.90;;;;;;4218948;28;20056;-80
2022/01/19 08:00:52;;;;;;;43.03;24.83;;;5.40;99.90;;;;;;4221578;28;20044;-80
2022/01/19 08:02:55;;;;;;;47.08;26.15;;;5.40;99.90;;;;;;4227633;28;20135;-81
2022/01/19 08:04:57;;;;;;;48.47;25.27;;;5.40;99.90;;;;;;4229134;28;20039;-80
2022/01/19 08:06:59;;;;;;;41.15;25.85;;;5.40;99.90;;;;;;4230761;28;20514;-80
2022/01/19 08:09:01;;;;;;;46.80;24.13;;;5.40;99.90;;;;;;4230712;28;20043;-79
2022/01/19 08:11:03;;;;;;;48.92;24.35;;;5.40;99.90;;;;;;4230437;28;20118;-78
2022/01/19 08:13:05;;;;;;;45.33;22.67;;;5.40;99.90;;;;;;4231976;28;20063;-80
2022/01/19 08:15:08;;;;;;;45.20;24.85;;;5.50;99.90;;;;;;4232536;28;20079;-80
2022/01/19 08:17:12;;;;;;;48.80;27.33;;;5.40;99.90;;;;;;4234030;28;20059;-80
2022/01/19 08:19:14;;;;;;;51.47;28.30;;;5.60;99.90;;;;;;4225193;28;20055;-80
2022/01/19 08:21:16;;;;;;;55.90;29.63;;;5.80;99.90;;;;;;4223832;28;20056;-79
2022/01/19 08:23:18;;;;;;;59.47;29.00;;;5.90;99.90;;;;;;4217168;28;20574;-80
2022/01/19 08:25:20;;;;;;;57.28;29.30;;;5.90;99.90;;;;;;4223433;28;20054;-79
2022/01/19 08:27:22;;;;;;;59.95;30.38;;;6.00;99.90;;;;;;4233982;28;20052;-80
2022/01/19 08:29:24;;;;;;;57.45;29.88;;;6.10;99.90;;;;;;4231471;28;20051;-81
2022/01/19 08:31:26;;;;;;;57.53;29.50;;;6.10;99.90;;;;;;4229977;28;20071;-80
2022/01/19 08:33:28;;;;;;;59.00;31.27;;;6.20;99.90;;;;;;4231420;28;20138;-80
2022/01/19 08:35:30;;;;;;;68.00;33.60;;;6.20;99.90;;;;;;4227994;28;20123;-80
2022/01/19 08:37:32;;;;;;;59.90;30.60;;;6.20;99.90;;;;;;4231467;28;20048;-80
2022/01/19 08:39:34;;;;;;;59.20;27.90;;;6.20;99.90;;;;;;4231378;28;20047;-81
2022/01/19 08:41:36;;;;;;;52.30;27.45;;;6.30;99.90;;;;;;4232264;28;20083;-80
2022/01/19 08:43:38;;;;;;;56.05;24.30;;;6.30;99.90;;;;;;4228741;28;20252;-81
2022/01/19 08:45:41;;;;;;;55.83;25.00;;;6.30;99.90;;;;;;4232148;28;20044;-81
2022/01/19 08:47:43;;;;;;;61.47;28.65;;;6.40;99.90;;;;;;4228229;28;20052;-78
2022/01/19 08:49:45;;;;;;;55.38;25.50;;;6.40;99.90;;;;;;4230671;28;20082;-80
2022/01/19 08:51:48;;;;;;;55.70;23.20;;;6.40;99.90;;;;;;4215964;28;20048;-80
2022/01/19 08:53:50;;;;;;;57.00;23.40;;;6.50;99.90;;;;;;4214928;28;20048;-80
2022/01/19 08:55:52;;;;;;;52.38;23.20;;;6.50;99.90;;;;;;4215376;28;20051;-81
2022/01/19 08:57:54;;;;;;;63.45;22.48;;;6.50;99.90;;;;;;4216249;28;20110;-79
2022/01/19 08:59:56;;;;;;;42.53;21.15;;;6.50;99.90;;;;;;4227894;28;20056;-79
2022/01/19 09:01:59;;;;;;;49.63;22.35;;;6.50;99.90;;;;;;4214712;28;20056;-80
2022/01/19 09:04:01;;;;;;;49.45;23.35;;;6.50;99.90;;;;;;4215042;28;20123;-80
2022/01/19 09:06:03;;;;;;;46.50;22.40;;;6.60;99.90;;;;;;4215348;28;20052;-78
2022/01/19 09:08:05;;;;;;;48.42;22.05;;;6.60;99.90;;;;;;4214269;28;20040;-79
2022/01/19 09:10:10;;;;;;;43.13;21.85;;;6.60;99.90;;;;;;4214880;28;20075;-80
2022/01/19 09:12:13;;;;;;;50.63;22.08;;;6.60;99.90;;;;;;4215261;28;20074;-80
2022/01/19 09:14:16;;;;;;;48.80;21.58;;;6.70;99.90;;;;;;4219355;28;20114;-81
2022/01/19 09:16:18;;;;;;;45.28;21.75;;;6.60;99.90;;;;;;4221719;28;20047;-80
2022/01/19 09:18:20;;;;;;;44.80;22.20;;;6.70;99.90;;;;;;4231060;28;20071;-80
2022/01/19 09:20:22;;;;;;;39.75;21.15;;;6.70;99.90;;;;;;4230955;28;20062;-80
2022/01/19 09:22:24;;;;;;;46.40;21.08;;;6.70;99.90;;;;;;4231176;28;20039;-80
2022/01/19 09:24:26;;;;;;;41.80;21.40;;;6.70;99.90;;;;;;4220295;28;20500;-80
2022/01/19 09:26:31;;;;;;;45.85;21.73;;;6.70;99.90;;;;;;4229311;28;20130;-80
2022/01/19 09:28:33;;;;;;;39.38;19.85;;;6.70;99.90;;;;;;4231112;28;20099;-79
2022/01/19 09:30:59;;;;;;;47.22;22.95;;;6.70;99.90;;;;;;4224443;28;20047;-81
2022/01/19 09:33:22;;;;;;;39.75;20.52;;;6.80;99.90;;;;;;4230965;28;20515;-80
2022/01/19 09:35:25;;;;;;;40.13;19.73;;;6.70;99.90;;;;;;4231359;28;20063;-80
2022/01/19 09:37:27;;;;;;;44.78;21.50;;;6.80;99.90;;;;;;4228352;28;20439;-81
2022/01/19 09:39:49;;;;;;;37.65;18.52;;;6.70;99.90;;;;;;4213776;28;20074;-79
2022/01/19 09:41:53;;;;;;;39.50;19.95;;;6.70;99.90;;;;;;4214154;28;20051;-80
2022/01/19 09:43:56;;;;;;;33.33;18.35;;;6.70;99.90;;;;;;4213848;28;20631;-81
2022/01/19 09:46:00;;;;;;;40.10;19.33;;;6.70;99.90;;;;;;4215852;28;20119;-79
2022/01/19 09:48:02;;;;;;;39.13;19.05;;;6.70;99.90;;;;;;4234585;27;20048;-80
2022/01/19 09:50:05;;;;;;;39.53;17.55;;;6.70;99.90;;;;;;4226573;28;20661;-80
2022/01/19 09:52:07;;;;;;;32.10;17.02;;;6.60;99.90;;;;;;4226314;28;20131;-80
2022/01/19 09:54:13;;;;;;;34.55;17.80;;;6.60;99.90;;;;;;4213650;28;20062;-80
2022/01/19 09:56:17;;;;;;;31.27;17.92;;;6.60;99.90;;;;;;4213218;28;20074;-80
2022/01/19 09:58:21;;;;;;;36.05;17.75;;;6.60;99.90;;;;;;4230193;28;20056;-79
2022/01/19 10:00:23;;;;;;;29.90;17.08;;;6.60;99.90;;;;;;4230922;28;20047;-81
2022/01/19 10:02:25;;;;;;;30.05;17.50;;;6.60;99.90;;;;;;4216220;28;20478;-80
2022/01/19 10:04:32;;;;;;;;;;;6.60;99.90;;;;;;4230030;28;20075;-80
2022/01/19 10:06:34;;;;;;;35.85;17.88;;;6.60;99.90;;;;;;4230343;28;19974;-81
2022/01/19 10:08:40;;;;;;;35.25;17.23;;;6.70;99.90;;;;;;4227881;28;20085;-80
2022/01/19 10:10:42;;;;;;;35.10;17.33;;;6.80;99.90;;;;;;4226296;28;20104;-80
2022/01/19 10:17:30;;;;;;;33.85;17.90;;;6.80;99.90;;;;;;4214875;28;20090;-79
2022/01/19 10:19:48;;;;;;;32.05;17.15;;;6.90;99.90;;;;;;4219424;28;20047;-80
2022/01/19 10:22:16;;;;;;;31.60;17.75;;;6.90;99.90;;;;;;4230130;28;20624;-79
2022/01/19 10:24:18;;;;;;;34.80;17.52;;;6.90;99.90;;;;;;4213207;28;20044;-80
2022/01/19 10:26:26;;;;;;;37.10;17.25;;;6.90;99.90;;;;;;4212763;28;20074;-80
2022/01/19 10:28:28;;;;;;;32.65;17.50;;;7.00;99.90;;;;;;4216212;28;20054;-79
2022/01/19 10:30:30;;;;;;;31.00;16.48;;;7.10;99.90;;;;;;4221172;28;20062;-80
2022/01/19 10:32:49;;;;;;;35.95;16.27;;;7.10;99.90;;;;;;4231205;28;20102;-77
2022/01/19 10:34:52;;;;;;;30.80;16.45;;;7.20;99.90;;;;;;4229563;28;20113;-78
2022/01/19 10:36:56;;;;;;;29.88;16.90;;;7.30;99.90;;;;;;4212584;28;20558;-79
2022/01/19 10:38:58;;;;;;;31.70;16.80;;;7.30;99.90;;;;;;4215614;28;20063;-79
2022/01/19 10:41:09;;;;;;;31.73;16.67;;;7.30;99.90;;;;;;4216263;28;20495;-81
2022/01/19 10:43:32;;;;;;;34.47;17.00;;;7.30;99.90;;;;;;4216940;28;20632;-81
2022/01/19 10:45:34;;;;;;;34.60;18.00;;;7.30;99.90;;;;;;4218612;28;20052;-81
2022/01/19 10:47:40;;;;;;;33.88;18.27;;;7.30;99.90;;;;;;4215345;28;20703;-79
2022/01/19 10:49:56;;;;;;;35.55;18.90;;;7.30;99.90;;;;;;4228754;28;20067;-81
2022/01/19 10:51:58;;;;;;;36.30;18.35;;;7.40;99.90;;;;;;4229345;28;20047;-80
2022/01/19 10:54:16;;;;;;;32.60;17.45;;;7.50;99.90;;;;;;4215547;28;20068;-80
2022/01/19 10:56:26;;;;;;;32.08;16.65;;;7.70;99.90;;;;;;4235259;27;20075;-79
2022/01/19 10:58:28;;;;;;;36.35;14.75;;;7.80;99.90;;;;;;4216475;28;20158;-80
2022/01/19 11:00:33;;;;;;;39.60;14.82;;;8.00;99.90;;;;;;4220266;28;20052;-79
2022/01/19 11:02:37;;;;;;;30.10;14.48;;;8.20;99.90;;;;;;4223135;28;20078;-79
2022/01/19 11:04:41;;;;;;;39.15;15.65;;;8.40;99.90;;;;;;4219269;28;20392;-79
2022/01/19 11:06:43;;;;;;;29.63;13.55;;;8.50;99.90;;;;;;4221477;28;20512;-79
2022/01/19 11:08:48;;;;;;;32.67;13.73;;;8.60;99.90;;;;;;4216033;28;20080;-81
2022/01/19 11:10:53;;;;;;;25.38;12.27;;;8.60;99.90;;;;;;4221824;28;20086;-81
2022/01/19 11:12:56;;;;;;;29.73;13.90;;;8.70;99.90;;;;;;4215789;28;20044;-80
2022/01/19 11:14:59;;;;;;;33.47;13.63;;;8.70;99.90;;;;;;4221748;28;20051;-78
2022/01/19 11:17:11;;;;;;;27.20;12.50;;;8.80;99.90;;;;;;4220397;28;20097;-80
2022/01/19 11:19:13;;;;;;;27.77;12.73;;;9.00;99.90;;;;;;4220757;28;20048;-80
2022/01/19 11:21:22;;;;;;;27.05;12.20;;;9.00;99.90;;;;;;4222990;28;20066;-79
2022/01/19 11:24:00;;;;;;;27.20;12.65;;;9.10;99.90;;;;;;4219785;28;20059;-80
2022/01/19 11:26:09;;;;;;;22.40;10.25;;;9.10;99.90;;;;;;4228794;28;20793;-79
2022/01/19 11:28:24;;;;;;;29.98;11.68;;;9.00;99.90;;;;;;4212643;28;20047;-79
2022/01/19 11:30:27;;;;;;;26.13;11.05;;;9.00;99.90;;;;;;4212423;28;20134;-80
2022/01/19 11:32:29;;;;;;;26.77;11.88;;;9.00;99.90;;;;;;4223287;28;20048;-80
2022/01/19 11:34:51;;;;;;;26.65;12.02;;;9.20;99.90;;;;;;4224048;28;20067;-79
2022/01/19 11:36:58;;;;;;;29.15;11.88;;;9.30;99.90;;;;;;4212501;28;20079;-80
2022/01/19 11:39:22;;;;;;;34.97;10.50;;;9.30;99.90;;;;;;4212481;28;20164;-80
2022/01/19 11:41:45;;;;;;;24.02;10.57;;;9.20;99.90;;;;;;4226115;28;20074;-80
2022/01/19 11:43:58;;;;;;;26.30;11.23;;;9.20;99.90;;;;;;4229342;28;20630;-79
2022/01/19 11:46:03;;;;;;;32.25;12.85;;;9.30;99.90;;;;;;4229533;28;20096;-79
2022/01/19 11:48:26;;;;;;;27.33;10.57;;;9.50;99.90;;;;;;4225018;28;20039;-80
2022/01/19 11:50:29;;;;;;;24.55;10.18;;;9.70;99.90;;;;;;4225933;28;20411;-80
2022/01/19 11:52:38;;;;;;;23.58;10.30;;;9.80;99.90;;;;;;4226601;28;20044;-80
2022/01/19 11:54:40;;;;;;;31.80;11.70;;;9.90;99.90;;;;;;4225578;28;20055;-78
2022/01/19 11:57:02;;;;;;;23.70;10.57;;;9.80;99.90;;;;;;4228982;28;20043;-80
2022/01/19 11:59:08;;;;;;;23.52;10.10;;;9.70;99.90;;;;;;4229155;28;20051;-82
2022/01/19 12:01:20;;;;;;;;;;;9.70;99.90;;;;;;4231810;28;20291;-82
2022/01/19 12:03:38;;;;;;;23.15;11.00;;;9.70;99.90;;;;;;4216633;28;20282;-78
2022/01/19 12:06:00;;;;;;;25.33;10.25;;;9.70;99.90;;;;;;4228780;28;20542;-80
2022/01/19 12:08:19;;;;;;;24.38;10.50;;;9.60;99.90;;;;;;4229442;28;20403;-79
2022/01/19 12:10:31;;;;;;;26.58;10.77;;;9.50;99.90;;;;;;4229098;28;20045;-81
2022/01/19 12:12:41;;;;;;;22.35;11.05;;;9.50;99.90;;;;;;4228085;28;20118;-79
2022/01/19 12:14:51;;;;;;;33.63;11.88;;;9.40;99.90;;;;;;4228705;28;20792;-81
2022/01/19 12:17:26;;;;;;;27.92;11.95;;;9.50;99.90;;;;;;4215261;28;20052;-80
2022/01/19 12:19:20;;;;;;;26.02;11.73;;;9.50;99.90;;;;;;4215689;28;20076;-78
2022/01/19 12:21:31;;;;;;;23.20;11.10;;;9.40;99.90;;;;;;4227483;28;20047;-78